Clackamas, Oregon
Current Conditions -  °F | °C
As of 10:53 AM on Saturday 25 Oct 2014 (Local Time) from KTTD Reporting Station
Overcast Overcast  
Wind Chill: 14°   Ceiling: 9000
Heat Index: 14°   Visibility: 10mi
Dew Point: 10°   Wind: 22mph
Humidity: 75%   Direction: 90°E
Pressure: 29.4"   Gusts: 35mph
Location:  45.41°N, 122.55°W
Report Text: KTTD 251753Z 09019G30KT 10SM OVC090 14/10 A2940 RMK AO2 PK WND 10030/1747 SLP956 60006 T01440100 10144 20111 56064
Loading
Personal Weather Stations






























Interactive Weather Map
Tropical Storm Tracking
New forecast layout! Learn more

10-Day Weather Forecast

Advertisements
Track Severe Weather on mobile